sensor_id;sensor_type;location;lat;lon;timestamp;pressure;altitude;pressure_sealevel;temperature;humidity
68889;BME280;55930;47.412;8.790;2022-11-12T00:02:35;96133.84;;;5.89;100.00
68889;BME280;55930;47.412;8.790;2022-11-12T00:05:55;96129.28;;;5.93;100.00
68889;BME280;55930;47.412;8.790;2022-11-12T00:09:15;96132.97;;;6.02;100.00
68889;BME280;55930;47.412;8.790;2022-11-12T00:12:36;96144.03;;;5.76;100.00
68889;BME280;55930;47.412;8.790;2022-11-12T00:15:56;96150.16;;;5.66;100.00
68889;BME280;55930;47.412;8.790;2022-11-12T00:19:17;96136.94;;;5.73;100.00
68889;BME280;55930;47.412;8.790;2022-11-12T00:22:37;96137.06;;;5.52;100.00
68889;BME280;55930;47.412;8.790;2022-11-12T00:26:00;96137.00;;;5.66;100.00
68889;BME280;55930;47.412;8.790;2022-11-12T00:29:20;96145.22;;;5.68;100.00
68889;BME280;55930;47.412;8.790;2022-11-12T00:32:41;96143.56;;;5.95;100.00
68889;BME280;55930;47.412;8.790;2022-11-12T00:36:04;96142.47;;;5.86;100.00
68889;BME280;55930;47.412;8.790;2022-11-12T00:39:24;96145.34;;;5.54;100.00
68889;BME280;55930;47.412;8.790;2022-11-12T00:42:44;96149.47;;;5.51;100.00
68889;BME280;55930;47.412;8.790;2022-11-12T00:46:05;96144.91;;;5.62;100.00
68889;BME280;55930;47.412;8.790;2022-11-12T00:49:25;96148.59;;;5.72;100.00
68889;BME280;55930;47.412;8.790;2022-11-12T00:52:46;96145.66;;;5.66;100.00
68889;BME280;55930;47.412;8.790;2022-11-12T00:56:06;96143.34;;;5.72;100.00
68889;BME280;55930;47.412;8.790;2022-11-12T00:59:27;96144.47;;;5.71;100.00
68889;BME280;55930;47.412;8.790;2022-11-12T01:02:47;96149.72;;;5.74;100.00
68889;BME280;55930;47.412;8.790;2022-11-12T01:06:21;96157.53;;;5.89;100.00
68889;BME280;55930;47.412;8.790;2022-11-12T01:09:42;96145.09;;;5.34;100.00
68889;BME280;55930;47.412;8.790;2022-11-12T01:13:02;96147.59;;;5.52;100.00
68889;BME280;55930;47.412;8.790;2022-11-12T01:16:26;96141.94;;;5.53;100.00
68889;BME280;55930;47.412;8.790;2022-11-12T01:19:46;96132.97;;;5.47;100.00
68889;BME280;55930;47.412;8.790;2022-11-12T01:23:07;96127.16;;;5.73;100.00
68889;BME280;55930;47.412;8.790;2022-11-12T01:26:27;96130.88;;;5.76;100.00
68889;BME280;55930;47.412;8.790;2022-11-12T01:29:47;96119.56;;;5.83;100.00
68889;BME280;55930;47.412;8.790;2022-11-12T01:33:10;96118.69;;;6.00;100.00
68889;BME280;55930;47.412;8.790;2022-11-12T01:36:33;96122.06;;;6.00;100.00
68889;BME280;55930;47.412;8.790;2022-11-12T01:39:56;96121.91;;;5.73;100.00
68889;BME280;55930;47.412;8.790;2022-11-12T01:43:17;96117.66;;;5.83;100.00
68889;BME280;55930;47.412;8.790;2022-11-12T01:50:34;96115.72;;;5.98;100.00
68889;BME280;55930;47.412;8.790;2022-11-12T01:54:02;96114.16;;;6.04;100.00
68889;BME280;55930;47.412;8.790;2022-11-12T01:57:27;96109.47;;;5.74;100.00
68889;BME280;55930;47.412;8.790;2022-11-12T02:00:51;96106.06;;;5.77;100.00
68889;BME280;55930;47.412;8.790;2022-11-12T02:04:12;96108.00;;;5.69;100.00
68889;BME280;55930;47.412;8.790;2022-11-12T02:07:33;96109.81;;;5.76;100.00
68889;BME280;55930;47.412;8.790;2022-11-12T02:10:55;96110.19;;;5.78;100.00
68889;BME280;55930;47.412;8.790;2022-11-12T02:14:15;96106.00;;;5.84;100.00
68889;BME280;55930;47.412;8.790;2022-11-12T02:17:38;96100.66;;;5.95;100.00
68889;BME280;55930;47.412;8.790;2022-11-12T02:21:04;96109.31;;;5.95;100.00
68889;BME280;55930;47.412;8.790;2022-11-12T02:27:51;96102.59;;;5.84;100.00
68889;BME280;55930;47.412;8.790;2022-11-12T02:31:14;96104.13;;;5.88;100.00
68889;BME280;55930;47.412;8.790;2022-11-12T02:34:34;96105.25;;;5.84;100.00
68889;BME280;55930;47.412;8.790;2022-11-12T02:37:54;96103.03;;;5.78;100.00
68889;BME280;55930;47.412;8.790;2022-11-12T02:41:15;96099.22;;;5.90;100.00
68889;BME280;55930;47.412;8.790;2022-11-12T02:44:35;96099.09;;;6.01;100.00
68889;BME280;55930;47.412;8.790;2022-11-12T02:47:56;96100.72;;;5.84;100.00
68889;BME280;55930;47.412;8.790;2022-11-12T02:51:16;96101.53;;;5.81;100.00
68889;BME280;55930;47.412;8.790;2022-11-12T02:54:37;96096.59;;;5.90;100.00
68889;BME280;55930;47.412;8.790;2022-11-12T02:57:58;96094.69;;;5.91;100.00
68889;BME280;55930;47.412;8.790;2022-11-12T03:01:24;96098.25;;;6.14;100.00
68889;BME280;55930;47.412;8.790;2022-11-12T03:04:47;96094.88;;;6.10;100.00
68889;BME280;55930;47.412;8.790;2022-11-12T03:08:08;96096.06;;;6.06;100.00
68889;BME280;55930;47.412;8.790;2022-11-12T03:11:30;96090.72;;;6.13;100.00
68889;BME280;55930;47.412;8.790;2022-11-12T03:14:51;96097.81;;;6.20;100.00
68889;BME280;55930;47.412;8.790;2022-11-12T03:18:11;96092.69;;;6.05;100.00
68889;BME280;55930;47.412;8.790;2022-11-12T03:21:32;96090.69;;;6.17;100.00
68889;BME280;55930;47.412;8.790;2022-11-12T03:24:55;96085.94;;;6.01;100.00
68889;BME280;55930;47.412;8.790;2022-11-12T03:28:15;96077.75;;;5.92;100.00
68889;BME280;55930;47.412;8.790;2022-11-12T03:31:36;96072.31;;;6.09;100.00
68889;BME280;55930;47.412;8.790;2022-11-12T03:34:56;96069.75;;;6.02;100.00
68889;BME280;55930;47.412;8.790;2022-11-12T03:38:17;96078.53;;;5.85;100.00
68889;BME280;55930;47.412;8.790;2022-11-12T03:41:37;96071.78;;;5.88;100.00
68889;BME280;55930;47.412;8.790;2022-11-12T03:44:58;96079.25;;;5.93;100.00
68889;BME280;55930;47.412;8.790;2022-11-12T03:48:18;96066.47;;;5.91;100.00
68889;BME280;55930;47.412;8.790;2022-11-12T03:51:39;96075.28;;;5.70;100.00
68889;BME280;55930;47.412;8.790;2022-11-12T03:55:01;96079.72;;;5.77;100.00
68889;BME280;55930;47.412;8.790;2022-11-12T03:58:22;96079.03;;;5.73;100.00
68889;BME280;55930;47.412;8.790;2022-11-12T04:01:42;96080.06;;;5.83;100.00
68889;BME280;55930;47.412;8.790;2022-11-12T04:05:04;96078.56;;;5.82;100.00
68889;BME280;55930;47.412;8.790;2022-11-12T04:08:44;96080.00;;;5.93;100.00
68889;BME280;55930;47.412;8.790;2022-11-12T04:12:04;96072.34;;;5.61;100.00
68889;BME280;55930;47.412;8.790;2022-11-12T04:15:45;96067.81;;;5.65;100.00
68889;BME280;55930;47.412;8.790;2022-11-12T04:19:25;96063.59;;;5.71;100.00
68889;BME280;55930;47.412;8.790;2022-11-12T04:23:04;96063.53;;;5.78;100.00
68889;BME280;55930;47.412;8.790;2022-11-12T04:26:24;96058.78;;;5.66;100.00
68889;BME280;55930;47.412;8.790;2022-11-12T04:29:46;96056.38;;;5.83;100.00
68889;BME280;55930;47.412;8.790;2022-11-12T04:33:25;96057.59;;;5.67;100.00
68889;BME280;55930;47.412;8.790;2022-11-12T04:36:45;96055.72;;;5.68;100.00
68889;BME280;55930;47.412;8.790;2022-11-12T04:40:07;96053.53;;;5.59;100.00
68889;BME280;55930;47.412;8.790;2022-11-12T04:43:47;96050.41;;;5.27;100.00
68889;BME280;55930;47.412;8.790;2022-11-12T04:47:35;96057.41;;;4.89;100.00
68889;BME280;55930;47.412;8.790;2022-11-12T04:50:58;96055.41;;;5.11;100.00
68889;BME280;55930;47.412;8.790;2022-11-12T04:54:18;96043.75;;;5.12;100.00
68889;BME280;55930;47.412;8.790;2022-11-12T04:57:39;96037.34;;;5.13;100.00
68889;BME280;55930;47.412;8.790;2022-11-12T05:01:02;96026.56;;;5.00;100.00
68889;BME280;55930;47.412;8.790;2022-11-12T05:04:22;96020.00;;;5.22;100.00
68889;BME280;55930;47.412;8.790;2022-11-12T05:07:48;96027.19;;;5.15;100.00
68889;BME280;55930;47.412;8.790;2022-11-12T05:11:09;96029.13;;;5.11;100.00
68889;BME280;55930;47.412;8.790;2022-11-12T05:14:29;96027.94;;;5.15;100.00
68889;BME280;55930;47.412;8.790;2022-11-12T05:17:50;96033.25;;;5.08;100.00
68889;BME280;55930;47.412;8.790;2022-11-12T05:21:10;96039.28;;;5.09;100.00
68889;BME280;55930;47.412;8.790;2022-11-12T05:24:49;96035.00;;;4.70;100.00
68889;BME280;55930;47.412;8.790;2022-11-12T05:28:10;96030.91;;;4.55;100.00
68889;BME280;55930;47.412;8.790;2022-11-12T05:31:30;96038.78;;;4.62;100.00
68889;BME280;55930;47.412;8.790;2022-11-12T05:34:51;96037.59;;;4.77;100.00
68889;BME280;55930;47.412;8.790;2022-11-12T05:38:12;96036.13;;;4.66;100.00
68889;BME280;55930;47.412;8.790;2022-11-12T05:41:32;96044.72;;;4.73;100.00
68889;BME280;55930;47.412;8.790;2022-11-12T05:44:52;96039.56;;;4.52;100.00
68889;BME280;55930;47.412;8.790;2022-11-12T05:48:13;96038.84;;;4.44;100.00
68889;BME280;55930;47.412;8.790;2022-11-12T05:51:33;96043.00;;;4.35;100.00
68889;BME280;55930;47.412;8.790;2022-11-12T05:54:56;96041.91;;;4.25;100.00
68889;BME280;55930;47.412;8.790;2022-11-12T05:58:16;96059.63;;;4.03;100.00
68889;BME280;55930;47.412;8.790;2022-11-12T06:01:37;96059.63;;;4.03;100.00
68889;BME280;55930;47.412;8.790;2022-11-12T06:05:03;96057.69;;;4.18;100.00
68889;BME280;55930;47.412;8.790;2022-11-12T06:08:23;96061.53;;;3.81;100.00
68889;BME280;55930;47.412;8.790;2022-11-12T06:11:44;96065.63;;;4.00;100.00
68889;BME280;55930;47.412;8.790;2022-11-12T06:15:05;96065.25;;;4.05;100.00
68889;BME280;55930;47.412;8.790;2022-11-12T06:18:25;96070.13;;;3.96;100.00
68889;BME280;55930;47.412;8.790;2022-11-12T06:21:45;96065.66;;;3.82;100.00
68889;BME280;55930;47.412;8.790;2022-11-12T06:25:09;96069.38;;;3.92;100.00
68889;BME280;55930;47.412;8.790;2022-11-12T06:28:29;96072.41;;;3.80;100.00
68889;BME280;55930;47.412;8.790;2022-11-12T06:31:50;96069.06;;;3.58;100.00
68889;BME280;55930;47.412;8.790;2022-11-12T06:35:13;96061.91;;;3.69;100.00
68889;BME280;55930;47.412;8.790;2022-11-12T06:38:36;96063.78;;;3.72;100.00
68889;BME280;55930;47.412;8.790;2022-11-12T06:41:57;96061.88;;;3.83;100.00
68889;BME280;55930;47.412;8.790;2022-11-12T06:45:18;96058.88;;;3.85;100.00
68889;BME280;55930;47.412;8.790;2022-11-12T06:48:41;96057.38;;;3.91;100.00
68889;BME280;55930;47.412;8.790;2022-11-12T06:52:02;96068.66;;;3.88;100.00
68889;BME280;55930;47.412;8.790;2022-11-12T06:55:23;96067.13;;;4.05;100.00
68889;BME280;55930;47.412;8.790;2022-11-12T06:58:43;96054.38;;;4.03;100.00
68889;BME280;55930;47.412;8.790;2022-11-12T07:02:04;96052.44;;;4.21;100.00
68889;BME280;55930;47.412;8.790;2022-11-12T07:05:24;96052.47;;;4.07;100.00
68889;BME280;55930;47.412;8.790;2022-11-12T07:08:46;96050.63;;;3.94;100.00
68889;BME280;55930;47.412;8.790;2022-11-12T07:12:06;96072.75;;;4.00;100.00
68889;BME280;55930;47.412;8.790;2022-11-12T07:15:26;96086.59;;;4.18;100.00
68889;BME280;55930;47.412;8.790;2022-11-12T07:18:48;96083.19;;;4.24;100.00
68889;BME280;55930;47.412;8.790;2022-11-12T07:22:09;96082.03;;;4.40;100.00
68889;BME280;55930;47.412;8.790;2022-11-12T07:25:31;96077.72;;;4.85;100.00
68889;BME280;55930;47.412;8.790;2022-11-12T07:28:52;96076.53;;;6.00;100.00
68889;BME280;55930;47.412;8.790;2022-11-12T07:32:15;96080.06;;;5.83;100.00
68889;BME280;55930;47.412;8.790;2022-11-12T07:35:35;96074.44;;;5.81;100.00
68889;BME280;55930;47.412;8.790;2022-11-12T07:38:56;96066.13;;;6.87;100.00
68889;BME280;55930;47.412;8.790;2022-11-12T07:42:16;96067.31;;;6.22;100.00
68889;BME280;55930;47.412;8.790;2022-11-12T07:45:39;96061.22;;;5.84;100.00
68889;BME280;55930;47.412;8.790;2022-11-12T07:49:00;96061.22;;;5.39;100.00
68889;BME280;55930;47.412;8.790;2022-11-12T07:52:22;96067.78;;;5.17;100.00
68889;BME280;55930;47.412;8.790;2022-11-12T07:55:52;96081.16;;;5.37;100.00
68889;BME280;55930;47.412;8.790;2022-11-12T07:59:12;96079.97;;;5.45;100.00
68889;BME280;55930;47.412;8.790;2022-11-12T08:02:32;96085.44;;;5.13;100.00
68889;BME280;55930;47.412;8.790;2022-11-12T08:05:58;96096.56;;;5.42;100.00
68889;BME280;55930;47.412;8.790;2022-11-12T08:09:19;96084.88;;;5.43;100.00
68889;BME280;55930;47.412;8.790;2022-11-12T08:12:40;96090.88;;;5.95;100.00
68889;BME280;55930;47.412;8.790;2022-11-12T08:16:00;96093.72;;;5.67;100.00
68889;BME280;55930;47.412;8.790;2022-11-12T08:19:21;96087.25;;;5.75;100.00
68889;BME280;55930;47.412;8.790;2022-11-12T08:22:43;96074.97;;;5.61;100.00
68889;BME280;55930;47.412;8.790;2022-11-12T08:26:06;96086.47;;;5.82;100.00
68889;BME280;55930;47.412;8.790;2022-11-12T08:29:27;96076.16;;;6.01;100.00
68889;BME280;55930;47.412;8.790;2022-11-12T08:32:57;96079.53;;;6.39;100.00
68889;BME280;55930;47.412;8.790;2022-11-12T08:36:18;96073.19;;;5.96;100.00
68889;BME280;55930;47.412;8.790;2022-11-12T08:39:39;96072.97;;;6.85;100.00
68889;BME280;55930;47.412;8.790;2022-11-12T08:43:00;96080.19;;;7.61;100.00
68889;BME280;55930;47.412;8.790;2022-11-12T08:46:21;96073.38;;;6.83;100.00
68889;BME280;55930;47.412;8.790;2022-11-12T08:49:41;96070.38;;;6.81;100.00
68889;BME280;55930;47.412;8.790;2022-11-12T08:53:04;96084.84;;;6.36;100.00
68889;BME280;55930;47.412;8.790;2022-11-12T08:56:25;96085.84;;;7.10;100.00
68889;BME280;55930;47.412;8.790;2022-11-12T08:59:45;96079.94;;;6.99;100.00
68889;BME280;55930;47.412;8.790;2022-11-12T09:03:07;96083.84;;;7.17;100.00
68889;BME280;55930;47.412;8.790;2022-11-12T09:06:32;96086.97;;;7.36;100.00
68889;BME280;55930;47.412;8.790;2022-11-12T09:09:52;96094.13;;;7.35;100.00
68889;BME280;55930;47.412;8.790;2022-11-12T09:13:13;96091.72;;;7.21;100.00
68889;BME280;55930;47.412;8.790;2022-11-12T09:16:33;96083.84;;;6.87;100.00
68889;BME280;55930;47.412;8.790;2022-11-12T09:19:57;96083.78;;;7.21;100.00
68889;BME280;55930;47.412;8.790;2022-11-12T09:23:17;96079.50;;;7.04;100.00
68889;BME280;55930;47.412;8.790;2022-11-12T09:26:40;96082.66;;;7.22;100.00
68889;BME280;55930;47.412;8.790;2022-11-12T09:30:01;96082.53;;;7.56;100.00
68889;BME280;55930;47.412;8.790;2022-11-12T09:33:30;96080.38;;;7.24;100.00
68889;BME280;55930;47.412;8.790;2022-11-12T09:36:53;96085.22;;;7.52;100.00
68889;BME280;55930;47.412;8.790;2022-11-12T09:40:16;96087.03;;;7.05;100.00
68889;BME280;55930;47.412;8.790;2022-11-12T09:43:52;96090.16;;;6.32;100.00
68889;BME280;55930;47.412;8.790;2022-11-12T09:47:23;96093.78;;;7.06;100.00
68889;BME280;55930;47.412;8.790;2022-11-12T09:51:26;96096.97;;;8.80;100.00
68889;BME280;55930;47.412;8.790;2022-11-12T09:54:51;96098.69;;;9.91;91.63
68889;BME280;55930;47.412;8.790;2022-11-12T09:58:17;96092.88;;;10.70;86.06
68889;BME280;55930;47.412;8.790;2022-11-12T10:08:59;96087.00;;;13.64;71.91
68889;BME280;55930;47.412;8.790;2022-11-12T10:20:15;96072.72;;;13.39;66.34
68889;BME280;55930;47.412;8.790;2022-11-12T10:23:44;96064.59;;;16.74;55.59
68889;BME280;55930;47.412;8.790;2022-11-12T10:27:17;96059.94;;;15.83;57.35
68889;BME280;55930;47.412;8.790;2022-11-12T10:30:38;96055.34;;;19.07;49.58
68889;BME280;55930;47.412;8.790;2022-11-12T10:37:58;96043.66;;;16.34;56.43
68889;BME280;55930;47.412;8.790;2022-11-12T10:41:29;96031.22;;;20.09;46.93
68889;BME280;55930;47.412;8.790;2022-11-12T10:44:52;96029.00;;;18.85;49.17
68889;BME280;55930;47.412;8.790;2022-11-12T10:51:54;96020.47;;;15.45;59.95
68889;BME280;55930;47.412;8.790;2022-11-12T10:55:20;96021.50;;;15.95;58.23
68889;BME280;55930;47.412;8.790;2022-11-12T10:58:41;96020.88;;;15.52;60.07
68889;BME280;55930;47.412;8.790;2022-11-12T11:02:01;96016.50;;;16.41;57.69
68889;BME280;55930;47.412;8.790;2022-11-12T11:05:29;96024.84;;;16.58;56.96
68889;BME280;55930;47.412;8.790;2022-11-12T11:08:52;96026.47;;;13.24;66.29
68889;BME280;55930;47.412;8.790;2022-11-12T11:12:28;96035.38;;;11.91;75.46
68889;BME280;55930;47.412;8.790;2022-11-12T11:16:03;96033.06;;;12.14;77.72
68889;BME280;55930;47.412;8.790;2022-11-12T11:19:33;96020.94;;;11.66;79.26
68889;BME280;55930;47.412;8.790;2022-11-12T11:22:55;96018.06;;;11.73;79.65
68889;BME280;55930;47.412;8.790;2022-11-12T11:37:21;96000.94;;;11.27;84.28
68889;BME280;55930;47.412;8.790;2022-11-12T11:55:52;95979.28;;;11.98;80.85
68889;BME280;55930;47.412;8.790;2022-11-12T12:03:24;95986.56;;;12.19;81.05
68889;BME280;55930;47.412;8.790;2022-11-12T12:07:10;95979.78;;;11.83;79.93
68889;BME280;55930;47.412;8.790;2022-11-12T12:10:42;95960.25;;;12.21;81.54
68889;BME280;55930;47.412;8.790;2022-11-12T12:21:18;95956.28;;;11.82;82.16
68889;BME280;55930;47.412;8.790;2022-11-12T12:24:49;95957.81;;;13.83;73.64
68889;BME280;55930;47.412;8.790;2022-11-12T12:28:26;95948.56;;;14.48;70.77
68889;BME280;55930;47.412;8.790;2022-11-12T12:35:32;95954.97;;;12.52;78.09
68889;BME280;55930;47.412;8.790;2022-11-12T12:42:54;95944.69;;;12.41;79.55
68889;BME280;55930;47.412;8.790;2022-11-12T12:46:24;95930.09;;;12.86;77.06
68889;BME280;55930;47.412;8.790;2022-11-12T12:49:46;95936.75;;;12.19;81.47
68889;BME280;55930;47.412;8.790;2022-11-12T13:07:19;95908.66;;;11.75;85.47
68889;BME280;55930;47.412;8.790;2022-11-12T13:17:56;95908.94;;;11.55;85.33
68889;BME280;55930;47.412;8.790;2022-11-12T13:21:18;95906.28;;;11.55;87.00
68889;BME280;55930;47.412;8.790;2022-11-12T13:28:22;95896.63;;;11.14;88.18
68889;BME280;55930;47.412;8.790;2022-11-12T13:31:42;95886.84;;;11.11;89.84
68889;BME280;55930;47.412;8.790;2022-11-12T13:38:41;95886.75;;;11.15;90.39
68889;BME280;55930;47.412;8.790;2022-11-12T13:42:11;95890.34;;;11.55;87.50
68889;BME280;55930;47.412;8.790;2022-11-12T13:49:29;95899.97;;;11.40;87.65
68889;BME280;55930;47.412;8.790;2022-11-12T13:52:50;95897.66;;;11.29;87.40
68889;BME280;55930;47.412;8.790;2022-11-12T13:56:11;95893.16;;;11.39;87.97
68889;BME280;55930;47.412;8.790;2022-11-12T13:59:32;95896.50;;;11.18;88.53
68889;BME280;55930;47.412;8.790;2022-11-12T14:17:16;95880.13;;;10.85;91.12
68889;BME280;55930;47.412;8.790;2022-11-12T14:20:40;95876.63;;;10.75;90.51
68889;BME280;55930;47.412;8.790;2022-11-12T14:24:01;95880.16;;;10.59;91.88
68889;BME280;55930;47.412;8.790;2022-11-12T14:30:45;95865.47;;;10.17;94.49
68889;BME280;55930;47.412;8.790;2022-11-12T14:34:40;95864.72;;;10.04;96.38
68889;BME280;55930;47.412;8.790;2022-11-12T14:38:10;95863.22;;;10.15;94.72
68889;BME280;55930;47.412;8.790;2022-11-12T14:41:36;95863.75;;;10.10;96.34
68889;BME280;55930;47.412;8.790;2022-11-12T14:44:57;95852.91;;;9.92;97.27
68889;BME280;55930;47.412;8.790;2022-11-12T14:48:18;95860.63;;;9.45;99.59
68889;BME280;55930;47.412;8.790;2022-11-12T14:51:44;95859.78;;;9.77;97.44
68889;BME280;55930;47.412;8.790;2022-11-12T14:55:16;95846.66;;;9.44;99.20
68889;BME280;55930;47.412;8.790;2022-11-12T14:58:38;95855.00;;;9.43;100.00
68889;BME280;55930;47.412;8.790;2022-11-12T15:02:12;95862.91;;;9.30;100.00
68889;BME280;55930;47.412;8.790;2022-11-12T15:05:51;95859.56;;;9.13;100.00
68889;BME280;55930;47.412;8.790;2022-11-12T15:09:16;95856.28;;;8.93;100.00
68889;BME280;55930;47.412;8.790;2022-11-12T15:12:38;95851.28;;;8.95;100.00
68889;BME280;55930;47.412;8.790;2022-11-12T15:16:08;95847.63;;;8.76;100.00
68889;BME280;55930;47.412;8.790;2022-11-12T15:19:29;95840.50;;;8.73;100.00
68889;BME280;55930;47.412;8.790;2022-11-12T15:22:59;95835.13;;;8.61;100.00
68889;BME280;55930;47.412;8.790;2022-11-12T15:26:30;95838.25;;;8.39;100.00
68889;BME280;55930;47.412;8.790;2022-11-12T15:30:07;95827.16;;;8.28;100.00
68889;BME280;55930;47.412;8.790;2022-11-12T15:33:28;95829.28;;;8.17;100.00
68889;BME280;55930;47.412;8.790;2022-11-12T15:36:51;95825.97;;;8.13;100.00
68889;BME280;55930;47.412;8.790;2022-11-12T15:40:16;95832.75;;;7.78;100.00
68889;BME280;55930;47.412;8.790;2022-11-12T15:43:40;95830.78;;;7.62;100.00
68889;BME280;55930;47.412;8.790;2022-11-12T15:47:07;95824.16;;;7.74;100.00
68889;BME280;55930;47.412;8.790;2022-11-12T15:50:30;95836.63;;;7.74;100.00
68889;BME280;55930;47.412;8.790;2022-11-12T15:53:50;95832.44;;;7.56;100.00
68889;BME280;55930;47.412;8.790;2022-11-12T15:57:16;95821.63;;;7.67;100.00
68889;BME280;55930;47.412;8.790;2022-11-12T16:00:37;95815.16;;;7.52;100.00
68889;BME280;55930;47.412;8.790;2022-11-12T16:04:01;95817.72;;;7.36;100.00
68889;BME280;55930;47.412;8.790;2022-11-12T16:07:21;95811.91;;;7.44;100.00
68889;BME280;55930;47.412;8.790;2022-11-12T16:10:43;95812.00;;;7.41;100.00
68889;BME280;55930;47.412;8.790;2022-11-12T16:14:10;95803.59;;;7.46;100.00
68889;BME280;55930;47.412;8.790;2022-11-12T16:17:34;95814.81;;;7.30;100.00
68889;BME280;55930;47.412;8.790;2022-11-12T16:20:57;95808.31;;;7.35;100.00
68889;BME280;55930;47.412;8.790;2022-11-12T16:24:18;95808.00;;;7.33;100.00
68889;BME280;55930;47.412;8.790;2022-11-12T16:27:38;95794.50;;;7.27;100.00
68889;BME280;55930;47.412;8.790;2022-11-12T16:30:59;95805.41;;;7.09;100.00
68889;BME280;55930;47.412;8.790;2022-11-12T16:34:20;95800.44;;;7.11;100.00
68889;BME280;55930;47.412;8.790;2022-11-12T16:37:41;95795.34;;;7.24;100.00
68889;BME280;55930;47.412;8.790;2022-11-12T16:41:02;95793.75;;;7.26;100.00
68889;BME280;55930;47.412;8.790;2022-11-12T16:44:22;95785.22;;;7.19;100.00
68889;BME280;55930;47.412;8.790;2022-11-12T16:47:48;95778.69;;;7.07;100.00
68889;BME280;55930;47.412;8.790;2022-11-12T16:51:14;95786.69;;;7.23;100.00
68889;BME280;55930;47.412;8.790;2022-11-12T16:54:36;95792.16;;;7.33;100.00
68889;BME280;55930;47.412;8.790;2022-11-12T16:57:56;95794.38;;;7.14;100.00
68889;BME280;55930;47.412;8.790;2022-11-12T17:04:42;95780.34;;;6.98;100.00
68889;BME280;55930;47.412;8.790;2022-11-12T17:08:07;95769.53;;;7.12;100.00
68889;BME280;55930;47.412;8.790;2022-11-12T17:11:28;95762.81;;;6.87;100.00
68889;BME280;55930;47.412;8.790;2022-11-12T17:14:48;95778.13;;;6.96;100.00
68889;BME280;55930;47.412;8.790;2022-11-12T17:18:08;95785.38;;;6.69;100.00
68889;BME280;55930;47.412;8.790;2022-11-12T17:21:29;95778.78;;;6.57;100.00
68889;BME280;55930;47.412;8.790;2022-11-12T17:24:49;95777.25;;;6.60;100.00
68889;BME280;55930;47.412;8.790;2022-11-12T17:28:10;95770.97;;;6.53;100.00
68889;BME280;55930;47.412;8.790;2022-11-12T17:31:31;95780.28;;;6.58;100.00
68889;BME280;55930;47.412;8.790;2022-11-12T17:34:51;95781.66;;;6.66;100.00
68889;BME280;55930;47.412;8.790;2022-11-12T17:38:14;95777.81;;;6.71;100.00
68889;BME280;55930;47.412;8.790;2022-11-12T17:41:34;95763.16;;;6.70;100.00
68889;BME280;55930;47.412;8.790;2022-11-12T17:44:58;95775.06;;;6.54;100.00
68889;BME280;55930;47.412;8.790;2022-11-12T17:48:18;95770.22;;;6.53;100.00
68889;BME280;55930;47.412;8.790;2022-11-12T17:51:39;95768.59;;;6.59;100.00
68889;BME280;55930;47.412;8.790;2022-11-12T17:55:02;95762.63;;;6.55;100.00
68889;BME280;55930;47.412;8.790;2022-11-12T17:58:23;95758.56;;;6.50;100.00
68889;BME280;55930;47.412;8.790;2022-11-12T18:01:43;95755.34;;;6.39;100.00
68889;BME280;55930;47.412;8.790;2022-11-12T18:05:06;95760.22;;;6.41;100.00
68889;BME280;55930;47.412;8.790;2022-11-12T18:08:26;95757.72;;;6.34;100.00
68889;BME280;55930;47.412;8.790;2022-11-12T18:11:51;95758.47;;;6.34;100.00
68889;BME280;55930;47.412;8.790;2022-11-12T18:15:15;95755.22;;;6.23;100.00
68889;BME280;55930;47.412;8.790;2022-11-12T18:18:36;95754.09;;;6.24;100.00
68889;BME280;55930;47.412;8.790;2022-11-12T18:21:58;95749.63;;;6.21;100.00
68889;BME280;55930;47.412;8.790;2022-11-12T18:25:21;95753.41;;;6.20;100.00
68889;BME280;55930;47.412;8.790;2022-11-12T18:28:42;95750.91;;;6.13;100.00
68889;BME280;55930;47.412;8.790;2022-11-12T18:32:02;95750.19;;;6.32;100.00
68889;BME280;55930;47.412;8.790;2022-11-12T18:35:23;95744.47;;;6.14;100.00
68889;BME280;55930;47.412;8.790;2022-11-12T18:38:44;95736.47;;;6.21;100.00
68889;BME280;55930;47.412;8.790;2022-11-12T18:42:05;95733.84;;;6.21;100.00
68889;BME280;55930;47.412;8.790;2022-11-12T18:45:31;95732.38;;;6.17;100.00
68889;BME280;55930;47.412;8.790;2022-11-12T18:48:52;95724.66;;;6.06;100.00
68889;BME280;55930;47.412;8.790;2022-11-12T18:52:12;95735.41;;;6.15;100.00
68889;BME280;55930;47.412;8.790;2022-11-12T18:55:37;95731.72;;;6.36;100.00
68889;BME280;55930;47.412;8.790;2022-11-12T18:58:57;95723.09;;;6.32;100.00
68889;BME280;55930;47.412;8.790;2022-11-12T19:02:18;95719.16;;;6.20;100.00
68889;BME280;55930;47.412;8.790;2022-11-12T19:05:38;95708.78;;;6.09;100.00
68889;BME280;55930;47.412;8.790;2022-11-12T19:08:59;95717.31;;;6.17;100.00
68889;BME280;55930;47.412;8.790;2022-11-12T19:12:22;95710.94;;;5.91;100.00
68889;BME280;55930;47.412;8.790;2022-11-12T19:15:45;95700.41;;;5.91;100.00
68889;BME280;55930;47.412;8.790;2022-11-12T19:19:07;95703.41;;;5.93;100.00
68889;BME280;55930;47.412;8.790;2022-11-12T19:22:27;95709.69;;;5.99;100.00
68889;BME280;55930;47.412;8.790;2022-11-12T19:25:48;95707.25;;;5.89;100.00
68889;BME280;55930;47.412;8.790;2022-11-12T19:29:08;95706.09;;;5.86;100.00
68889;BME280;55930;47.412;8.790;2022-11-12T19:32:28;95697.47;;;5.86;100.00
68889;BME280;55930;47.412;8.790;2022-11-12T19:35:49;95702.72;;;5.89;100.00
68889;BME280;55930;47.412;8.790;2022-11-12T19:39:09;95692.88;;;5.66;100.00
68889;BME280;55930;47.412;8.790;2022-11-12T19:42:30;95697.38;;;5.66;100.00
68889;BME280;55930;47.412;8.790;2022-11-12T19:45:50;95691.28;;;5.72;100.00
68889;BME280;55930;47.412;8.790;2022-11-12T19:49:10;95696.38;;;5.83;100.00
68889;BME280;55930;47.412;8.790;2022-11-12T19:52:31;95700.47;;;5.88;100.00
68889;BME280;55930;47.412;8.790;2022-11-12T19:55:51;95703.22;;;5.77;100.00
68889;BME280;55930;47.412;8.790;2022-11-12T19:59:12;95702.72;;;5.86;100.00
68889;BME280;55930;47.412;8.790;2022-11-12T20:02:32;95700.81;;;5.63;100.00
68889;BME280;55930;47.412;8.790;2022-11-12T20:05:59;95695.59;;;5.59;100.00